Time;durP1;ratioP1;P1;durP2;ratioP2;P2;SDS_P1;SDS_P2;PMS_P1;PMS_P2;Temp;Humidity;BMP_temperature;BMP_pressure;BME280_temperature;BME280_humidity;BME280_pressure;Samples;Min_cycle;Max_cycle;Signal;HPM_P1;HPM_P2
2021/05/18 00:00:37;;;;;;;1.00;0.70;;;;;;;12.21;69.53;95239.97;4994281;28;20220;-82
2021/05/18 00:03:04;;;;;;;0.70;0.67;;;;;;;12.23;69.93;95238.78;4999258;28;20195;-86
2021/05/18 00:05:31;;;;;;;1.00;0.70;;;;;;;12.25;69.52;95234.22;5016162;28;20704;-86
2021/05/18 00:07:59;;;;;;;0.63;0.63;;;;;;;12.30;69.39;95234.44;5013493;28;20195;-86
2021/05/18 00:13:13;;;;;;;0.57;0.57;;;;;;;12.41;69.09;95249.34;5014764;28;20257;-86
2021/05/18 00:15:41;;;;;;;1.70;0.70;;;;;;;12.44;69.33;95248.16;5015424;28;20214;-85
2021/05/18 00:18:07;;;;;;;0.87;0.70;;;;;;;12.45;69.05;95247.16;5012024;28;20218;-87
2021/05/18 00:20:35;;;;;;;0.53;0.53;;;;;;;12.37;69.19;95255.09;4995432;28;20254;-88
2021/05/18 00:23:02;;;;;;;1.10;0.70;;;;;;;12.44;68.47;95254.13;4996093;28;20199;-86
2021/05/18 00:25:29;;;;;;;1.33;0.77;;;;;;;12.43;68.80;95259.47;5014401;28;20234;-87
2021/05/18 00:27:55;;;;;;;0.80;0.70;;;;;;;12.42;69.27;95257.88;5014472;28;20621;-86
2021/05/18 00:30:22;;;;;;;0.70;0.70;;;;;;;12.36;69.07;95264.59;4994578;28;20703;-84
2021/05/18 00:32:48;;;;;;;1.07;0.70;;;;;;;12.30;68.69;95262.03;5000582;28;20198;-85
2021/05/18 00:35:15;;;;;;;0.80;0.60;;;;;;;12.22;68.72;95262.19;4997172;28;20204;-84
2021/05/18 00:37:41;;;;;;;0.60;0.60;;;;;;;12.28;68.77;95264.81;4992337;28;20314;-85
2021/05/18 00:40:10;;;;;;;0.80;0.80;;;;;;;12.28;68.46;95266.59;5008904;28;20737;-84
2021/05/18 00:42:47;;;;;;;0.50;0.50;;;;;;;12.24;68.40;95266.19;5011581;28;20205;-84
2021/05/18 00:45:15;;;;;;;0.60;0.60;;;;;;;12.26;68.66;95266.78;4994833;28;20215;-84
2021/05/18 00:47:42;;;;;;;0.53;0.53;;;;;;;12.22;67.88;95270.72;4992443;28;20206;-85
2021/05/18 00:50:11;;;;;;;1.27;0.77;;;;;;;12.26;68.49;95266.78;5007923;28;20219;-85
2021/05/18 00:52:37;;;;;;;1.37;0.50;;;;;;;12.21;67.64;95265.75;5012021;28;20884;-85
2021/05/18 00:55:06;;;;;;;0.50;0.50;;;;;;;12.21;67.52;95270.94;4997291;28;20203;-84
2021/05/18 01:00:17;;;;;;;0.60;0.50;;;;;;;12.19;67.32;95265.97;5007763;28;20226;-85
2021/05/18 01:02:46;;;;;;;0.50;0.50;;;;;;;12.20;67.53;95279.66;5011489;28;20207;-84
2021/05/18 01:05:18;;;;;;;1.10;0.53;;;;;;;12.16;67.67;95276.66;4997558;28;20263;-85
2021/05/18 01:07:44;;;;;;;1.13;0.50;;;;;;;12.18;67.56;95279.06;4992143;28;20239;-85
2021/05/18 01:10:12;;;;;;;0.57;0.57;;;;;;;12.18;67.65;95279.84;5010669;28;20273;-84
2021/05/18 01:12:38;;;;;;;0.50;0.50;;;;;;;12.20;67.60;95277.06;5010804;28;20203;-85
2021/05/18 01:15:05;;;;;;;0.57;0.57;;;;;;;12.16;67.64;95276.66;4999416;28;20203;-85
2021/05/18 01:17:31;;;;;;;0.97;0.60;;;;;;;12.17;67.73;95275.69;4992154;28;20281;-85
2021/05/18 01:20:07;;;;;;;0.50;0.50;;;;;;;12.09;67.67;95276.66;5002738;28;20875;-85
2021/05/18 01:22:34;;;;;;;0.50;0.50;;;;;;;12.12;67.30;95277.25;5011335;28;20732;-85
2021/05/18 01:25:00;;;;;;;1.60;0.57;;;;;;;12.14;67.80;95280.41;5000075;28;20234;-86
2021/05/18 01:27:26;;;;;;;0.50;0.50;;;;;;;12.16;67.45;95283.59;5000931;28;20196;-86
2021/05/18 01:29:51;;;;;;;1.10;0.50;;;;;;;12.13;67.79;95282.19;5008747;28;20718;-87
2021/05/18 01:32:22;;;;;;;0.50;0.50;;;;;;;12.20;67.65;95279.66;5012705;28;20261;-85
2021/05/18 01:34:48;;;;;;;0.50;0.50;;;;;;;12.18;67.29;95287.59;5010330;28;20217;-87
2021/05/18 01:37:14;;;;;;;0.50;0.50;;;;;;;12.12;68.20;95285.00;5017863;28;20206;-84
2021/05/18 01:39:53;;;;;;;1.33;0.40;;;;;;;12.04;67.74;95281.59;5008506;28;20814;-86
2021/05/18 01:45:08;;;;;;;0.50;0.50;;;;;;;12.06;67.69;95300.25;5000760;28;20210;-87
2021/05/18 01:47:34;;;;;;;0.70;0.50;;;;;;;11.99;68.21;95302.00;5006294;28;20520;-87
2021/05/18 01:50:01;;;;;;;0.40;0.40;;;;;;;11.99;68.38;95302.00;5006476;28;20278;-86
2021/05/18 01:52:27;;;;;;;0.50;0.50;;;;;;;12.02;68.11;95300.84;4994788;28;20203;-86
2021/05/18 01:54:54;;;;;;;1.03;0.40;;;;;;;12.03;68.18;95303.22;4999130;28;20204;-87
2021/05/18 01:57:20;;;;;;;0.50;0.50;;;;;;;11.99;68.30;95303.78;5007304;28;20200;-87
2021/05/18 01:59:48;;;;;;;0.50;0.50;;;;;;;12.01;68.50;95300.03;4997734;28;20246;-85
2021/05/18 02:02:14;;;;;;;0.50;0.50;;;;;;;12.09;68.21;95312.00;5013361;28;20211;-86
2021/05/18 02:04:44;;;;;;;0.60;0.50;;;;;;;12.04;68.11;95304.81;5010930;28;20709;-87
2021/05/18 02:07:12;;;;;;;0.50;0.50;;;;;;;12.15;67.84;95310.41;4993947;28;20219;-86
2021/05/18 02:09:39;;;;;;;0.40;0.40;;;;;;;12.13;68.05;95308.00;5007387;28;20226;-87
2021/05/18 02:12:07;;;;;;;0.50;0.50;;;;;;;12.18;67.67;95317.78;5012504;28;20224;-86
2021/05/18 02:14:34;;;;;;;0.50;0.50;;;;;;;12.07;67.74;95309.59;5012536;28;20199;-86
2021/05/18 02:17:07;;;;;;;0.90;0.50;;;;;;;12.07;67.95;95309.59;4994609;28;20302;-87
2021/05/18 02:20:01;;;;;;;0.50;0.50;;;;;;;12.15;67.66;95311.19;5012573;28;20289;-87
2021/05/18 02:25:16;;;;;;;0.77;0.57;;;;;;;12.14;67.79;95308.81;5013100;28;20229;-87
2021/05/18 02:27:43;;;;;;;0.40;0.40;;;;;;;12.18;68.31;95317.78;5009553;28;20200;-85
2021/05/18 02:30:09;;;;;;;0.50;0.50;;;;;;;12.10;68.10;95324.72;4993327;28;20227;-86
2021/05/18 02:32:36;;;;;;;0.63;0.63;;;;;;;12.01;69.10;95312.94;4997588;28;20195;-86
2021/05/18 02:35:04;;;;;;;4.23;0.70;;;;;;;12.06;68.71;95315.75;4992964;28;20235;-86
2021/05/18 02:37:30;;;;;;;0.60;0.60;;;;;;;12.02;68.67;95319.69;4993271;28;20222;-87
2021/05/18 02:39:56;;;;;;;1.10;0.60;;;;;;;12.02;68.49;95326.63;5013170;28;20219;-85
2021/05/18 02:42:22;;;;;;;1.27;0.60;;;;;;;12.07;68.77;95316.53;4994066;28;20745;-86
2021/05/18 02:44:54;;;;;;;0.50;0.50;;;;;;;12.09;68.79;95320.53;4993223;28;20719;-87
2021/05/18 02:50:05;;;;;;;1.80;0.80;;;;;;;12.09;68.88;95320.53;4993709;28;20250;-87
2021/05/18 02:52:32;;;;;;;0.80;0.73;;;;;;;12.07;68.77;95313.97;4995864;28;20207;-87
2021/05/18 02:54:58;;;;;;;0.63;0.60;;;;;;;11.99;68.80;95314.13;5012824;28;20297;-87
2021/05/18 02:57:32;;;;;;;0.50;0.50;;;;;;;11.99;68.70;95307.16;5010844;28;20276;-87
2021/05/18 03:00:01;;;;;;;1.13;0.50;;;;;;;12.04;68.68;95314.34;4993556;28;20219;-86
2021/05/18 03:02:27;;;;;;;0.50;0.50;;;;;;;12.08;69.06;95313.78;4993695;28;20586;-85
2021/05/18 03:04:53;;;;;;;0.97;0.60;;;;;;;12.15;68.97;95318.94;4996568;28;20722;-87
2021/05/18 03:07:21;;;;;;;1.03;0.60;;;;;;;12.05;69.12;95314.16;4992645;28;20207;-86
2021/05/18 03:09:47;;;;;;;0.80;0.60;;;;;;;12.11;69.03;95317.75;5008761;28;20223;-87
2021/05/18 03:12:14;;;;;;;1.03;0.60;;;;;;;12.00;69.33;95323.44;5010036;28;20203;-85
2021/05/18 03:14:40;;;;;;;0.50;0.50;;;;;;;12.09;69.11;95317.16;4993456;28;20207;-86
2021/05/18 03:17:07;;;;;;;0.80;0.63;;;;;;;12.01;69.20;95322.47;4994046;28;20203;-86
2021/05/18 03:19:33;;;;;;;0.60;0.57;;;;;;;12.05;69.23;95331.41;5011188;28;20222;-86
2021/05/18 03:21:59;;;;;;;0.50;0.50;;;;;;;12.12;69.35;95326.28;4998434;28;20207;-86
2021/05/18 03:24:25;;;;;;;1.03;0.80;;;;;;;12.24;68.78;95329.91;4992352;28;20204;-86
2021/05/18 03:26:51;;;;;;;0.50;0.50;;;;;;;12.23;68.59;95323.94;5004110;28;20253;-86
2021/05/18 03:29:22;;;;;;;0.50;0.50;;;;;;;12.22;68.65;95327.53;5011034;28;20194;-85
2021/05/18 03:34:35;;;;;;;0.60;0.60;;;;;;;12.16;69.21;95330.06;5005224;28;20839;-87
2021/05/18 03:37:07;;;;;;;0.50;0.50;;;;;;;12.17;69.53;95334.25;4998692;28;20199;-85
2021/05/18 03:39:34;;;;;;;0.57;0.57;;;;;;;12.21;69.35;95338.03;4991760;28;20227;-86
2021/05/18 03:42:02;;;;;;;0.60;0.60;;;;;;;12.15;69.62;95331.06;5003513;28;20563;-85
2021/05/18 03:44:44;;;;;;;0.60;0.60;;;;;;;12.13;69.50;95333.03;5000941;28;20290;-88
2021/05/18 03:52:44;;;;;;;0.60;0.60;;;;;;;12.13;69.80;95331.25;4991310;28;20207;-85
2021/05/18 04:03:23;;;;;;;1.23;0.80;;;;;;;12.11;69.76;95322.91;5008512;28;20588;-86
2021/05/18 04:17:00;;;;;;;0.60;0.60;;;;;;;12.12;69.30;95334.84;4990832;28;20970;-85
2021/05/18 04:19:35;;;;;;;0.60;0.60;;;;;;;12.07;68.74;95325.09;5002461;28;20222;-85
2021/05/18 04:38:50;;;;;;;2.13;1.93;;;;;;;12.21;67.83;95351.75;5000643;28;20225;-86
2021/05/18 04:41:42;;;;;;;4.23;2.50;;;;;;;12.18;67.36;95357.28;5011164;28;20822;-85
2021/05/18 04:49:54;;;;;;;4.03;2.53;;;;;;;12.22;67.15;95366.25;5003220;28;20241;-87
2021/05/18 04:52:23;;;;;;;3.27;2.53;;;;;;;12.39;68.02;95359.75;5004260;28;20207;-86
2021/05/18 04:55:25;;;;;;;0.70;0.70;;;;;;;12.32;65.98;95364.09;5013017;28;20407;-85
2021/05/18 05:00:44;;;;;;;1.90;0.63;;;;;;;12.29;66.42;95369.66;4996616;28;20222;-86
2021/05/18 05:06:27;;;;;;;0.60;0.60;;;;;;;12.39;66.90;95379.63;5000335;28;20210;-86
2021/05/18 05:09:08;;;;;;;1.57;0.70;;;;;;;12.39;66.45;95374.44;5006134;28;20223;-86
2021/05/18 05:14:23;;;;;;;2.13;0.70;;;;;;;12.45;65.83;95381.44;5008652;28;20211;-87
2021/05/18 05:16:50;;;;;;;0.93;0.60;;;;;;;12.41;65.44;95380.22;5003930;28;20231;-87
2021/05/18 05:19:16;;;;;;;0.97;0.60;;;;;;;12.43;65.80;95381.63;5009389;28;20219;-87
2021/05/18 05:21:46;;;;;;;1.30;0.70;;;;;;;12.54;65.24;95385.44;5003026;28;20204;-86
2021/05/18 05:24:13;;;;;;;0.63;0.60;;;;;;;12.45;65.76;95389.19;5011585;28;20214;-86
2021/05/18 05:26:40;;;;;;;0.50;0.50;;;;;;;12.37;65.53;95402.25;5003653;28;20306;-86
2021/05/18 05:29:08;;;;;;;0.60;0.60;;;;;;;12.32;65.81;95402.00;5007329;28;20196;-86
2021/05/18 05:31:34;;;;;;;7.77;5.70;;;;;;;12.19;66.43;95405.34;4998068;28;20191;-89
2021/05/18 05:34:06;;;;;;;0.70;0.70;;;;;;;12.18;66.82;95411.47;5001908;28;20199;-85
2021/05/18 05:36:32;;;;;;;0.67;0.50;;;;;;;12.16;66.40;95407.50;4997858;28;20195;-87
2021/05/18 05:39:04;;;;;;;1.53;0.60;;;;;;;12.07;66.85;95412.03;5014476;28;20274;-87
2021/05/18 05:41:35;;;;;;;0.50;0.50;;;;;;;12.09;67.30;95408.28;5013417;28;20194;-87
2021/05/18 05:44:05;;;;;;;1.23;0.60;;;;;;;12.14;67.25;95412.03;5013876;28;20773;-86
2021/05/18 05:46:34;;;;;;;0.60;0.60;;;;;;;12.24;67.17;95410.72;5010511;28;20255;-88
2021/05/18 05:50:11;;;;;;;;;;;;;;;;;;;;;
2021/05/18 05:52:38;;;;;;;1.00;0.63;;;;;;;12.36;66.76;95416.94;4954275;28;20215;-85
2021/05/18 05:55:05;;;;;;;0.60;0.60;;;;;;;12.38;66.85;95424.50;5012915;28;20807;-86
2021/05/18 05:57:31;;;;;;;1.07;0.60;;;;;;;12.31;67.03;95419.31;5012989;28;20666;-86
2021/05/18 05:59:58;;;;;;;0.60;0.60;;;;;;;12.32;67.20;95428.63;4997880;28;20630;-86
2021/05/18 06:02:24;;;;;;;0.70;0.60;;;;;;;12.28;66.97;95431.81;5004863;28;20199;-87
2021/05/18 06:04:54;;;;;;;2.37;0.63;;;;;;;12.19;67.69;95438.09;5011915;28;20222;-88
2021/05/18 06:07:22;;;;;;;0.70;0.70;;;;;;;12.17;66.95;95433.13;5002100;28;20679;-86
2021/05/18 06:09:54;;;;;;;0.60;0.60;;;;;;;12.20;67.50;95439.69;5009437;28;20912;-86
2021/05/18 06:43:55;;;;;;;1.43;0.70;;;;;;;12.59;66.41;95468.28;5010941;28;20264;-87
2021/05/18 06:46:34;;;;;;;0.50;0.50;;;;;;;12.64;66.23;95467.72;5012425;28;20214;-87
2021/05/18 06:51:41;;;;;;;1.00;0.70;;;;;;;12.82;66.94;95468.00;5003772;28;20198;-85
2021/05/18 06:54:40;;;;;;;1.13;0.57;;;;;;;12.98;67.43;95469.44;4992529;28;20200;-87
2021/05/18 06:57:07;;;;;;;0.57;0.57;;;;;;;12.98;66.75;95472.84;4999897;28;20199;-86
2021/05/18 07:02:17;;;;;;;0.63;0.60;;;;;;;12.98;66.20;95472.84;4992056;28;20293;-87
2021/05/18 07:04:44;;;;;;;1.50;0.70;;;;;;;12.93;66.33;95475.19;5012236;28;20810;-88
2021/05/18 07:07:14;;;;;;;1.43;0.70;;;;;;;13.07;66.15;95473.47;5007017;28;20207;-87
2021/05/18 07:09:40;;;;;;;0.60;0.60;;;;;;;13.13;66.22;95476.06;4991510;28;20266;-87
2021/05/18 07:12:07;;;;;;;1.00;0.90;;;;;;;13.27;65.84;95471.75;5003446;28;20791;-88
2021/05/18 07:14:33;;;;;;;0.67;0.67;;;;;;;13.31;64.68;95469.56;4992114;28;20819;-86
2021/05/18 07:16:59;;;;;;;1.07;0.70;;;;;;;13.39;64.58;95472.78;4992241;28;20219;-86
2021/05/18 07:19:25;;;;;;;0.63;0.63;;;;;;;13.28;64.58;95475.13;4994361;28;20287;-85
2021/05/18 07:21:52;;;;;;;0.63;0.50;;;;;;;13.24;64.83;95471.34;5006235;28;20210;-84
2021/05/18 07:24:22;;;;;;;2.27;0.60;;;;;;;13.31;65.19;95479.91;4993489;28;20357;-87
2021/05/18 07:26:49;;;;;;;0.53;0.53;;;;;;;13.32;65.06;95484.09;4991053;28;20294;-85
2021/05/18 07:29:16;;;;;;;1.90;0.60;;;;;;;13.33;64.67;95480.50;4992163;28;20204;-85
2021/05/18 07:31:42;;;;;;;1.37;0.60;;;;;;;13.27;65.11;95479.53;4998099;28;20195;-85
2021/05/18 07:34:10;;;;;;;1.17;0.60;;;;;;;13.21;65.02;95475.13;5011338;28;20635;-85
2021/05/18 07:36:36;;;;;;;0.70;0.70;;;;;;;13.28;65.02;95469.94;4995486;28;20282;-85
2021/05/18 07:39:04;;;;;;;1.13;0.60;;;;;;;13.29;64.57;95471.53;4991651;28;20220;-86
2021/05/18 07:41:32;;;;;;;1.90;0.90;;;;;;;13.44;64.90;95475.56;4992978;28;20261;-85
2021/05/18 07:43:58;;;;;;;0.83;0.63;;;;;;;13.60;64.88;95473.59;4994866;28;20203;-85
2021/05/18 07:46:24;;;;;;;0.70;0.70;;;;;;;13.67;64.25;95470.00;4991902;28;20203;-85
2021/05/18 07:51:39;;;;;;;0.60;0.60;;;;;;;14.04;62.35;95478.19;4995457;28;20187;-86
2021/05/18 07:59:44;;;;;;;1.23;0.50;;;;;;;14.41;60.74;95463.81;5000472;28;20229;-88
2021/05/18 08:02:25;;;;;;;0.77;0.70;;;;;;;14.52;61.05;95463.19;5011584;28;20217;-85
2021/05/18 08:07:36;;;;;;;1.63;0.60;;;;;;;14.07;60.74;95473.38;4992049;28;20199;-87
2021/05/18 08:10:11;;;;;;;0.70;0.70;;;;;;;14.03;61.12;95466.25;5009747;28;20222;-86
2021/05/18 08:12:38;;;;;;;0.73;0.70;;;;;;;13.83;61.79;95476.59;5011381;28;20244;-84
2021/05/18 08:15:26;;;;;;;0.60;0.60;;;;;;;13.62;63.57;95480.16;5011554;28;20302;-82
2021/05/18 08:18:02;;;;;;;3.67;0.90;;;;;;;13.44;64.41;95479.94;5011440;28;20206;-87
2021/05/18 08:46:37;;;;;;;0.67;0.67;;;;;;;13.30;64.01;95470.56;4994209;28;20229;-85
2021/05/18 10:16:23;;;;;;;0.73;0.57;;;;;;;13.13;73.46;95493.34;4993680;28;20203;-86
2021/05/18 10:22:11;;;;;;;1.23;0.60;;;;;;;13.32;74.68;95497.81;5011959;28;20302;-84
2021/05/18 10:35:58;;;;;;;0.60;0.60;;;;;;;13.44;74.66;95488.50;5012662;28;20187;-87
2021/05/18 10:38:27;;;;;;;0.50;0.50;;;;;;;13.18;72.95;95472.13;5005778;28;20215;-87
2021/05/18 10:40:54;;;;;;;0.50;0.50;;;;;;;13.11;75.08;95479.81;4992565;28;20592;-87
2021/05/18 10:43:28;;;;;;;1.17;0.60;;;;;;;12.95;76.76;95482.75;4997977;28;20203;-86
2021/05/18 10:46:21;;;;;;;0.53;0.53;;;;;;;13.48;75.55;95476.75;5011189;28;20297;-86
2021/05/18 10:48:55;;;;;;;0.50;0.50;;;;;;;14.04;73.59;95473.81;5003285;28;20207;-86
2021/05/18 10:51:25;;;;;;;0.50;0.50;;;;;;;14.06;72.17;95474.38;4992509;28;20220;-86
2021/05/18 10:54:12;;;;;;;0.97;0.70;;;;;;;14.37;75.03;95481.53;5011827;28;20281;-87
2021/05/18 10:57:02;;;;;;;0.60;0.60;;;;;;;14.80;68.85;95476.66;5009293;28;20203;-88
2021/05/18 10:59:29;;;;;;;0.50;0.50;;;;;;;14.63;70.93;95464.34;5003847;28;20281;-88
2021/05/18 11:02:01;;;;;;;0.60;0.60;;;;;;;14.34;71.17;95471.56;4995820;28;20199;-86
2021/05/18 11:04:29;;;;;;;0.60;0.60;;;;;;;14.08;72.27;95479.38;4993160;28;20214;-88
2021/05/18 11:06:56;;;;;;;0.83;0.60;;;;;;;14.11;71.61;95477.19;5004108;28;20482;-88
2021/05/18 11:09:24;;;;;;;0.60;0.60;;;;;;;13.86;69.98;95481.34;5012075;28;20253;-88
2021/05/18 11:11:58;;;;;;;1.03;0.60;;;;;;;13.64;74.51;95485.16;4997737;28;20240;-87
2021/05/18 11:14:42;;;;;;;0.57;0.50;;;;;;;13.46;74.09;95499.47;5003947;28;20670;-86
2021/05/18 11:17:15;;;;;;;1.03;0.50;;;;;;;13.07;70.51;95501.91;5000114;28;20195;-88
2021/05/18 11:19:54;;;;;;;0.50;0.50;;;;;;;12.92;71.31;95512.34;4992338;28;20286;-88
2021/05/18 11:25:00;;;;;;;0.73;0.73;;;;;;;13.47;71.70;95495.84;5005313;28;20222;-89
2021/05/18 11:27:28;;;;;;;0.60;0.60;;;;;;;13.93;70.86;95492.53;4992964;28;20257;-89
2021/05/18 11:29:54;;;;;;;0.50;0.50;;;;;;;13.92;68.26;95492.72;5002591;28;20336;-88
2021/05/18 11:32:20;;;;;;;0.60;0.60;;;;;;;14.04;68.37;95475.59;5000444;28;20204;-87
2021/05/18 11:34:51;;;;;;;0.67;0.53;;;;;;;13.91;68.12;95468.63;4991612;28;20268;-86
2021/05/18 11:37:18;;;;;;;0.53;0.53;;;;;;;13.86;65.75;95465.03;4993023;28;20199;-89
2021/05/18 11:39:44;;;;;;;0.60;0.60;;;;;;;13.79;68.22;95476.19;4995978;28;20219;-88
2021/05/18 11:42:10;;;;;;;1.20;0.50;;;;;;;13.67;66.77;95470.00;5009936;28;20210;-88
2021/05/18 11:44:36;;;;;;;0.93;0.70;;;;;;;13.63;67.64;95468.03;5003942;28;20206;-88
2021/05/18 11:47:03;;;;;;;0.57;0.57;;;;;;;13.60;65.70;95460.66;4993635;28;20192;-88
2021/05/18 11:49:32;;;;;;;0.50;0.50;;;;;;;13.60;66.63;95458.88;4992851;28;20251;-87
2021/05/18 11:51:59;;;;;;;0.70;0.70;;;;;;;13.51;65.25;95462.63;4997101;28;20655;-85
2021/05/18 11:54:28;;;;;;;0.70;0.70;;;;;;;13.56;64.32;95449.91;5012846;28;20644;-85
2021/05/18 11:56:55;;;;;;;0.60;0.60;;;;;;;13.70;64.79;95458.47;5017959;28;20190;-87
2021/05/18 11:59:22;;;;;;;0.50;0.50;;;;;;;13.99;64.40;95462.47;5004724;28;20215;-87
2021/05/18 12:01:51;;;;;;;0.53;0.53;;;;;;;14.32;64.64;95475.34;5000729;28;20249;-88
2021/05/18 12:04:19;;;;;;;0.50;0.50;;;;;;;14.72;62.45;95466.50;4999021;28;20203;-87
2021/05/18 12:06:55;;;;;;;0.50;0.50;;;;;;;14.79;60.23;95469.91;5002313;28;20261;-87
2021/05/18 12:09:21;;;;;;;0.50;0.50;;;;;;;14.33;59.89;95467.38;5011660;28;20233;-88
2021/05/18 12:11:52;;;;;;;0.63;0.50;;;;;;;14.35;59.88;95460.22;5016480;28;20605;-86
2021/05/18 12:14:18;;;;;;;1.83;0.60;;;;;;;14.75;60.24;95458.34;5017452;28;20214;-88
2021/05/18 12:16:45;;;;;;;0.57;0.57;;;;;;;15.08;58.03;95450.41;5015567;28;20196;-87
2021/05/18 12:19:12;;;;;;;0.50;0.50;;;;;;;14.98;58.71;95441.50;5015383;28;20246;-86
2021/05/18 12:21:40;;;;;;;1.30;0.50;;;;;;;14.59;58.16;95458.00;5015080;28;20635;-87
2021/05/18 12:24:09;;;;;;;0.40;0.40;;;;;;;14.48;58.63;95457.63;4998227;28;20755;-87
2021/05/18 12:26:45;;;;;;;0.90;0.77;;;;;;;14.35;58.97;95455.03;4997816;28;20227;-88
2021/05/18 12:29:11;;;;;;;0.63;0.60;;;;;;;14.37;57.67;95455.63;5018530;28;20207;-85
2021/05/18 12:31:38;;;;;;;0.60;0.60;;;;;;;14.72;57.69;95450.16;5013381;28;20538;-87
2021/05/18 12:34:06;;;;;;;0.53;0.53;;;;;;;14.88;57.79;95447.09;5018896;28;20202;-87
2021/05/18 12:36:46;;;;;;;0.40;0.40;;;;;;;15.20;57.16;95435.75;5018351;28;20206;-86
2021/05/18 12:39:14;;;;;;;2.30;0.70;;;;;;;15.29;55.97;95438.91;5018536;28;20218;-89
2021/05/18 12:41:53;;;;;;;1.13;0.80;;;;;;;15.67;55.81;95433.69;5016509;28;20211;-88
2021/05/18 12:44:20;;;;;;;0.50;0.50;;;;;;;15.77;56.00;95433.22;5014252;28;20202;-87
2021/05/18 12:46:54;;;;;;;0.60;0.60;;;;;;;15.79;54.70;95426.81;5017301;28;20195;-86
2021/05/18 12:49:40;;;;;;;0.70;0.70;;;;;;;15.66;54.73;95423.53;5002249;28;20671;-88
2021/05/18 12:52:10;;;;;;;0.60;0.60;;;;;;;15.80;56.76;95430.97;5010580;28;20261;-87
2021/05/18 12:54:48;;;;;;;0.90;0.70;;;;;;;15.97;55.74;95428.63;5022383;28;20195;-88
2021/05/18 12:57:18;;;;;;;0.73;0.60;;;;;;;16.04;55.01;95420.81;5012820;28;20290;-87
2021/05/18 13:00:03;;;;;;;0.60;0.60;;;;;;;15.97;55.33;95420.84;5001759;28;20706;-86
2021/05/18 13:02:34;;;;;;;1.77;0.90;;;;;;;16.12;55.68;95415.34;5005856;28;20249;-87
2021/05/18 13:05:14;;;;;;;0.40;0.40;;;;;;;16.38;52.86;95404.66;5000321;28;20254;-86
2021/05/18 13:07:42;;;;;;;0.50;0.50;;;;;;;16.70;53.80;95394.94;5005131;28;20222;-87
2021/05/18 13:10:17;;;;;;;0.60;0.60;;;;;;;16.95;53.76;95400.00;5014875;28;20230;-86
2021/05/18 13:12:43;;;;;;;0.80;0.80;;;;;;;16.86;52.23;95399.53;5014469;28;20194;-85
2021/05/18 13:15:11;;;;;;;0.90;0.60;;;;;;;16.82;50.76;95390.56;5015266;28;20272;-86
2021/05/18 13:17:51;;;;;;;0.60;0.60;;;;;;;16.84;51.98;95395.56;5005370;28;20590;-87
2021/05/18 13:20:19;;;;;;;0.60;0.60;;;;;;;16.52;50.63;95390.53;4997454;28;20236;-87
2021/05/18 13:22:51;;;;;;;0.85;0.70;;;;;;;16.15;51.51;95384.53;5003380;28;20713;-89
2021/05/18 13:28:04;;;;;;;2.27;0.73;;;;;;;16.31;51.63;95377.19;5004083;28;20199;-87
2021/05/18 13:30:31;;;;;;;0.57;0.57;;;;;;;16.76;51.04;95375.06;5002427;28;20219;-88
2021/05/18 13:32:57;;;;;;;0.90;0.70;;;;;;;16.89;50.36;95370.50;4997172;28;20222;-87
2021/05/18 13:35:28;;;;;;;0.63;0.60;;;;;;;16.66;51.08;95367.78;5011534;28;20199;-87
2021/05/18 13:37:56;;;;;;;0.70;0.70;;;;;;;16.36;50.98;95364.31;5014462;28;20209;-86
2021/05/18 13:40:22;;;;;;;0.75;0.70;;;;;;;16.11;51.56;95367.00;4996329;28;20234;-88
2021/05/18 13:42:51;;;;;;;1.48;0.80;;;;;;;16.25;51.78;95365.84;5000746;28;20238;-88
2021/05/18 13:45:18;;;;;;;0.70;0.70;;;;;;;16.55;52.56;95347.69;5011695;28;20619;-87
2021/05/18 13:47:44;;;;;;;2.25;0.80;;;;;;;16.93;52.82;95353.41;5007460;28;20196;-86
2021/05/18 13:50:12;;;;;;;1.02;0.73;;;;;;;17.33;52.53;95365.03;4994996;28;20228;-88
2021/05/18 13:52:38;;;;;;;0.80;0.80;;;;;;;17.21;49.89;95352.03;4998713;28;20195;-87
2021/05/18 13:55:06;;;;;;;1.17;0.80;;;;;;;16.97;49.97;95366.75;5007513;28;20199;-87
2021/05/18 13:57:32;;;;;;;1.60;0.80;;;;;;;17.17;49.49;95353.47;5008767;28;20257;-87
2021/05/18 13:59:58;;;;;;;0.98;0.85;;;;;;;16.97;51.15;95355.56;5013833;28;20223;-87
2021/05/18 14:02:26;;;;;;;1.17;0.93;;;;;;;16.93;51.28;95361.22;4998883;28;20195;-85
2021/05/18 14:04:52;;;;;;;0.95;0.77;;;;;;;17.05;50.49;95356.06;5013306;28;20242;-87
2021/05/18 14:07:53;;;;;;;0.70;0.70;;;;;;;17.38;51.84;95359.97;5010594;28;20266;-88
2021/05/18 14:10:20;;;;;;;0.98;0.80;;;;;;;17.36;47.89;95356.78;4999800;28;20229;-87
2021/05/18 14:12:46;;;;;;;1.05;0.63;;;;;;;17.36;47.78;95349.78;5003464;28;20199;-85
2021/05/18 14:15:13;;;;;;;0.60;0.60;;;;;;;17.19;48.27;95347.03;4996462;28;20203;-88
2021/05/18 14:17:39;;;;;;;0.88;0.60;;;;;;;17.02;48.98;95342.69;5001151;28;20207;-86
2021/05/18 14:20:16;;;;;;;0.68;0.60;;;;;;;16.79;49.79;95341.59;4993750;28;20804;-87
2021/05/18 14:22:48;;;;;;;1.15;0.80;;;;;;;16.64;49.67;95336.00;4993664;28;20717;-86
2021/05/18 14:28:22;;;;;;;0.70;0.70;;;;;;;16.63;50.68;95331.00;4996953;28;20199;-87
2021/05/18 14:30:49;;;;;;;0.73;0.68;;;;;;;16.59;54.14;95335.84;4994618;28;20289;-88
2021/05/18 14:33:15;;;;;;;1.13;0.98;;;;;;;16.65;53.35;95342.00;5007691;28;20230;-83
2021/05/18 14:35:41;;;;;;;2.60;0.82;;;;;;;16.72;52.42;95338.31;5012788;28;20203;-85
2021/05/18 14:38:10;;;;;;;0.80;0.70;;;;;;;16.66;49.91;95344.38;5000676;28;20234;-86
2021/05/18 14:43:51;;;;;;;0.55;0.50;;;;;;;15.83;53.64;95391.63;5006724;28;20244;-86
2021/05/18 14:46:24;;;;;;;1.92;1.05;;;;;;;15.28;54.00;95390.63;5011492;28;20202;-85
2021/05/18 14:54:49;;;;;;;0.77;0.60;;;;;;;14.70;55.06;95375.22;5002737;28;20210;-86
2021/05/18 14:57:15;;;;;;;0.97;0.50;;;;;;;15.04;54.26;95375.81;4992224;28;20207;-85
2021/05/18 14:59:42;;;;;;;0.60;0.60;;;;;;;15.44;53.39;95384.94;5010482;28;20637;-86
2021/05/18 15:02:08;;;;;;;0.50;0.50;;;;;;;15.80;53.82;95384.25;5011047;28;20210;-85
2021/05/18 15:04:36;;;;;;;0.67;0.63;;;;;;;15.97;52.47;95384.50;5011346;28;20203;-85
2021/05/18 15:07:06;;;;;;;0.60;0.60;;;;;;;15.94;51.99;95376.38;5011724;28;20203;-86
2021/05/18 15:09:32;;;;;;;1.70;0.80;;;;;;;15.81;52.70;95374.66;5009775;28;20214;-85
2021/05/18 15:11:58;;;;;;;1.07;0.80;;;;;;;15.83;53.24;95370.06;5011577;28;20702;-86
2021/05/18 15:14:24;;;;;;;0.70;0.63;;;;;;;15.91;53.38;95369.78;5011783;28;20198;-85
2021/05/18 15:16:51;;;;;;;0.77;0.70;;;;;;;16.19;53.30;95362.28;5013014;28;20213;-86
2021/05/18 15:19:23;;;;;;;1.90;0.60;;;;;;;16.35;52.15;95360.16;4995804;28;20262;-85
2021/05/18 15:21:52;;;;;;;1.10;0.70;;;;;;;16.37;51.77;95356.28;5007276;28;20202;-85
2021/05/18 15:24:18;;;;;;;0.40;0.40;;;;;;;16.29;51.94;95361.81;5011496;28;20213;-85
2021/05/18 15:26:46;;;;;;;0.50;0.50;;;;;;;16.07;52.08;95352.84;5005432;28;20291;-85
2021/05/18 15:29:15;;;;;;;0.73;0.60;;;;;;;15.98;52.96;95356.72;5011712;28;20202;-85
2021/05/18 15:31:41;;;;;;;0.60;0.60;;;;;;;15.94;52.87;95353.78;4995147;28;20211;-87
2021/05/18 15:34:08;;;;;;;2.97;1.30;;;;;;;15.98;54.25;95354.13;5006091;28;20889;-86
2021/05/18 15:36:37;;;;;;;1.10;0.77;;;;;;;16.08;53.45;95344.06;5008573;28;20211;-85
2021/05/18 15:39:04;;;;;;;0.60;0.60;;;;;;;16.10;52.72;95345.44;5010316;28;20230;-86
2021/05/18 15:41:30;;;;;;;1.57;0.63;;;;;;;16.17;52.32;95353.13;5009730;28;20219;-86
2021/05/18 15:43:56;;;;;;;0.60;0.60;;;;;;;16.20;52.44;95356.09;4995797;28;20200;-86
2021/05/18 15:46:23;;;;;;;0.90;0.70;;;;;;;16.14;52.90;95350.97;4990306;28;20218;-86
2021/05/18 15:48:49;;;;;;;0.57;0.57;;;;;;;15.98;53.34;95354.91;5004094;28;20206;-85
2021/05/18 15:51:18;;;;;;;0.80;0.80;;;;;;;15.93;52.76;95351.41;5010082;28;20226;-85
2021/05/18 15:53:44;;;;;;;1.90;0.73;;;;;;;15.93;53.60;95348.81;4999181;28;20196;-86
2021/05/18 15:56:10;;;;;;;0.60;0.60;;;;;;;16.12;52.86;95335.63;4992357;28;20782;-86
2021/05/18 15:58:37;;;;;;;0.40;0.40;;;;;;;16.21;52.37;95333.50;5010206;28;20235;-86
2021/05/18 16:01:03;;;;;;;0.75;0.75;;;;;;;16.25;51.78;95332.06;5011101;28;20281;-84
2021/05/18 16:03:29;;;;;;;1.33;0.70;;;;;;;16.43;50.69;95323.47;4991322;28;20218;-85
2021/05/18 16:05:58;;;;;;;0.60;0.60;;;;;;;16.59;49.85;95328.03;4990165;28;20204;-87
2021/05/18 16:11:09;;;;;;;3.33;0.80;;;;;;;16.56;49.12;95318.88;5009159;28;20221;-87
2021/05/18 16:13:38;;;;;;;6.15;1.00;;;;;;;16.61;48.77;95315.63;4992846;28;20200;-86